Time;durP1;ratioP1;P1;durP2;ratioP2;P2;SDS_P1;SDS_P2;PMS_P1;PMS_P2;Temp;Humidity;BMP_temperature;BMP_pressure;BME280_temperature;BME280_humidity;BME280_pressure;Samples;Min_cycle;Max_cycle;Signal;HPM_P1;HPM_P2
2021/12/25 00:00:19;;;;;;;;;;;19.60;57.30;;;;;;5033577;28;1256;-68
2021/12/25 00:02:45;;;;;;;;;;;19.60;57.30;;;;;;5032516;28;1077;-67
2021/12/25 00:05:10;;;;;;;;;;;19.60;57.30;;;;;;5033417;28;1416;-67
2021/12/25 00:07:36;;;;;;;;;;;19.60;57.30;;;;;;5033113;28;1902;-67
2021/12/25 00:10:02;;;;;;;;;;;19.60;57.40;;;;;;5035145;28;1194;-67
2021/12/25 00:12:27;;;;;;;;;;;19.60;57.40;;;;;;5033268;28;1386;-67
2021/12/25 00:14:54;;;;;;;;;;;19.60;57.40;;;;;;5033852;28;1282;-67
2021/12/25 00:17:19;;;;;;;;;;;19.60;57.40;;;;;;5034084;28;1294;-67
2021/12/25 00:19:45;;;;;;;;;;;19.60;57.40;;;;;;5034283;28;1278;-67
2021/12/25 00:22:10;;;;;;;;;;;19.60;57.40;;;;;;5034190;28;1369;-67
2021/12/25 00:24:41;;;;;;;;;;;19.60;57.40;;;;;;5033674;28;1349;-67
2021/12/25 00:27:22;;;;;;;;;;;19.60;57.50;;;;;;5034454;28;1966;-67
2021/12/25 00:30:09;;;;;;;;;;;19.60;57.50;;;;;;5033931;28;999;-67
2021/12/25 00:32:51;;;;;;;;;;;19.60;57.50;;;;;;5034084;28;1233;-67
2021/12/25 00:35:16;;;;;;;;;;;19.50;57.50;;;;;;5033598;28;1306;-68
2021/12/25 00:37:42;;;;;;;;;;;19.50;57.50;;;;;;5034063;28;1365;-68
2021/12/25 00:40:08;;;;;;;;;;;19.50;57.50;;;;;;5034036;28;1357;-68
2021/12/25 00:42:33;;;;;;;;;;;19.50;57.60;;;;;;5032495;28;1068;-68
2021/12/25 00:44:58;;;;;;;;;;;19.50;57.60;;;;;;5032952;28;1309;-68
2021/12/25 00:47:24;;;;;;;;;;;19.50;57.60;;;;;;5033643;28;1906;-68
2021/12/25 00:49:49;;;;;;;;;;;19.50;57.60;;;;;;5034219;28;1108;-68
2021/12/25 00:52:15;;;;;;;;;;;19.50;57.60;;;;;;5033580;28;1065;-68
2021/12/25 00:54:40;;;;;;;;;;;19.50;57.60;;;;;;5031747;28;1357;-68
2021/12/25 00:57:06;;;;;;;;;;;19.50;57.60;;;;;;5033296;28;1335;-68
2021/12/25 00:59:32;;;;;;;;;;;19.50;57.70;;;;;;5033841;28;1299;-68
2021/12/25 01:01:58;;;;;;;;;;;19.50;57.60;;;;;;5033448;28;1221;-67
2021/12/25 01:04:24;;;;;;;;;;;19.40;57.60;;;;;;5032707;28;1397;-69
2021/12/25 01:06:49;;;;;;;;;;;19.40;57.60;;;;;;5032098;28;1902;-68
2021/12/25 01:09:14;;;;;;;;;;;19.50;57.70;;;;;;5033771;28;1138;-68
2021/12/25 01:11:42;;;;;;;;;;;19.40;57.70;;;;;;5033401;28;1342;-68
2021/12/25 01:14:22;;;;;;;;;;;19.40;57.70;;;;;;5032523;28;1349;-68
2021/12/25 01:35:08;;;;;;;;;;;19.40;57.70;;;;;;5031368;28;1740;-67
2021/12/25 01:48:17;;;;;;;;;;;19.40;57.80;;;;;;5033330;28;1357;-69
2021/12/25 01:50:42;;;;;;;;;;;19.40;57.80;;;;;;5031351;28;1088;-69
2021/12/25 01:53:07;;;;;;;;;;;19.40;57.80;;;;;;5030502;28;1157;-69
2021/12/25 01:55:33;;;;;;;;;;;19.40;57.80;;;;;;5032495;28;1408;-69
2021/12/25 01:58:00;;;;;;;;;;;19.40;57.80;;;;;;5032632;28;1320;-69
2021/12/25 02:00:35;;;;;;;;;;;19.40;57.80;;;;;;5032690;28;1269;-69
2021/12/25 02:03:02;;;;;;;;;;;19.40;57.80;;;;;;5023175;28;1076;-69
2021/12/25 02:05:28;;;;;;;;;;;19.30;57.70;;;;;;5031246;28;1906;-69
2021/12/25 02:07:53;;;;;;;;;;;19.40;57.80;;;;;;5031171;28;1069;-69
2021/12/25 02:10:19;;;;;;;;;;;19.40;57.70;;;;;;5033055;28;1229;-69
2021/12/25 02:12:45;;;;;;;;;;;19.40;57.80;;;;;;5031434;28;1368;-69
2021/12/25 02:15:15;;;;;;;;;;;19.40;57.70;;;;;;5031331;28;1288;-69
2021/12/25 02:20:30;;;;;;;;;;;19.40;57.70;;;;;;5032664;28;1287;-69
2021/12/25 02:23:01;;;;;;;;;;;19.40;57.70;;;;;;5031626;28;1395;-69
2021/12/25 02:25:33;;;;;;;;;;;19.40;57.70;;;;;;5031227;28;1894;-68
2021/12/25 02:27:59;;;;;;;;;;;19.40;57.70;;;;;;5032326;28;1040;-68
2021/12/25 02:30:24;;;;;;;;;;;19.40;57.70;;;;;;5032079;28;1367;-68
2021/12/25 02:32:49;;;;;;;;;;;19.40;57.70;;;;;;5031791;28;1286;-68
2021/12/25 02:35:15;;;;;;;;;;;19.40;57.70;;;;;;5032278;28;1354;-68
2021/12/25 02:37:40;;;;;;;;;;;19.40;57.70;;;;;;5032177;28;1486;-68
2021/12/25 02:40:07;;;;;;;;;;;19.30;57.60;;;;;;5032025;28;1313;-68
2021/12/25 02:42:34;;;;;;;;;;;19.40;57.70;;;;;;5032308;28;1298;-68
2021/12/25 02:45:00;;;;;;;;;;;19.40;57.70;;;;;;5032595;28;1287;-68
2021/12/25 02:47:25;;;;;;;;;;;19.40;57.70;;;;;;5036256;28;1906;-68
2021/12/25 02:49:51;;;;;;;;;;;19.30;57.70;;;;;;5036285;28;1306;-68
2021/12/25 02:52:16;;;;;;;;;;;19.40;57.70;;;;;;5035090;28;1336;-68
2021/12/25 02:54:43;;;;;;;;;;;19.40;57.70;;;;;;5035679;28;1484;-68
2021/12/25 02:57:09;;;;;;;;;;;19.30;57.70;;;;;;5036672;28;1370;-68
2021/12/25 02:59:34;;;;;;;;;;;19.40;57.80;;;;;;5036061;28;1316;-68
2021/12/25 03:02:06;;;;;;;;;;;19.30;57.70;;;;;;5033888;28;1304;-68
2021/12/25 03:04:33;;;;;;;;;;;19.40;57.70;;;;;;5034925;28;1332;-68
2021/12/25 03:06:58;;;;;;;;;;;19.40;57.70;;;;;;5034848;28;1941;-68
2021/12/25 03:09:23;;;;;;;;;;;19.40;57.70;;;;;;5035481;28;1489;-68
2021/12/25 03:11:49;;;;;;;;;;;19.40;57.70;;;;;;5035765;28;1251;-68
2021/12/25 03:14:32;;;;;;;;;;;19.30;57.70;;;;;;5034582;28;1365;-68
2021/12/25 03:16:57;;;;;;;;;;;19.40;57.70;;;;;;5035329;28;1123;-68
2021/12/25 03:19:29;;;;;;;;;;;19.40;57.70;;;;;;5035794;28;1348;-68
2021/12/25 03:21:57;;;;;;;;;;;19.40;57.70;;;;;;5035580;28;1301;-68
2021/12/25 03:24:22;;;;;;;;;;;19.40;57.70;;;;;;5034425;28;1311;-68
2021/12/25 03:26:52;;;;;;;;;;;19.40;57.70;;;;;;5035129;28;1894;-68
2021/12/25 03:29:17;;;;;;;;;;;19.40;57.70;;;;;;5035670;28;1332;-68
2021/12/25 03:31:43;;;;;;;;;;;19.40;57.70;;;;;;5033999;28;1429;-68
2021/12/25 03:34:08;;;;;;;;;;;19.40;57.70;;;;;;5034675;28;1266;-68
2021/12/25 03:36:33;;;;;;;;;;;19.40;57.70;;;;;;5034152;28;1341;-69
2021/12/25 03:39:00;;;;;;;;;;;19.40;57.70;;;;;;5035466;28;1331;-68
2021/12/25 03:41:26;;;;;;;;;;;19.40;57.70;;;;;;5034921;28;1345;-68
2021/12/25 03:43:51;;;;;;;;;;;19.40;57.70;;;;;;5034205;28;1290;-68
2021/12/25 03:46:17;;;;;;;;;;;19.30;57.70;;;;;;5034953;28;1968;-68
2021/12/25 03:59:33;;;;;;;;;;;19.30;57.80;;;;;;5034667;28;1273;-68
2021/12/25 04:02:04;;;;;;;;;;;19.30;57.70;;;;;;5035240;28;1266;-68
2021/12/25 04:04:39;;;;;;;;;;;19.30;57.80;;;;;;5034514;28;1313;-68
2021/12/25 04:07:16;;;;;;;;;;;19.30;57.80;;;;;;5034880;28;1902;-68
2021/12/25 04:09:41;;;;;;;;;;;19.30;57.80;;;;;;5034688;28;1110;-68
2021/12/25 04:12:08;;;;;;;;;;;19.30;57.80;;;;;;5034136;28;1282;-68
2021/12/25 04:14:33;;;;;;;;;;;19.30;57.80;;;;;;5032854;28;1357;-68
2021/12/25 04:16:59;;;;;;;;;;;19.30;57.80;;;;;;5032912;28;1049;-70
2021/12/25 04:19:24;;;;;;;;;;;19.30;57.80;;;;;;5034745;28;1032;-69
2021/12/25 04:21:57;;;;;;;;;;;19.30;57.80;;;;;;5034012;28;1369;-70
2021/12/25 04:24:24;;;;;;;;;;;19.30;57.90;;;;;;5033890;28;1294;-69
2021/12/25 04:26:50;;;;;;;;;;;19.30;57.80;;;;;;5034460;28;1894;-70
2021/12/25 04:48:51;;;;;;;;;;;19.30;57.80;;;;;;5034024;28;1291;-69
2021/12/25 05:02:07;;;;;;;;;;;19.30;57.80;;;;;;5033833;28;933;-69
2021/12/25 05:04:39;;;;;;;;;;;19.30;57.70;;;;;;5032174;28;1396;-69
2021/12/25 05:07:05;;;;;;;;;;;19.30;57.80;;;;;;5033467;28;1973;-69
2021/12/25 05:09:31;;;;;;;;;;;19.30;57.70;;;;;;5032831;28;1111;-69
2021/12/25 05:11:56;;;;;;;;;;;19.30;57.70;;;;;;5033058;28;1089;-69
2021/12/25 05:14:22;;;;;;;;;;;19.30;57.70;;;;;;5032525;28;1334;-68
2021/12/25 05:16:47;;;;;;;;;;;19.30;57.70;;;;;;5033450;28;1261;-67
2021/12/25 05:19:13;;;;;;;;;;;19.40;57.70;;;;;;5033279;28;1286;-68
2021/12/25 05:21:38;;;;;;;;;;;19.30;57.50;;;;;;5033278;28;1357;-69
2021/12/25 05:24:05;;;;;;;;;;;19.40;57.50;;;;;;5030920;28;1322;-72
2021/12/25 05:26:31;;;;;;;;;;;19.50;57.40;;;;;;5026962;28;1977;-72
2021/12/25 05:28:59;;;;;;;;;;;19.50;57.30;;;;;;5029274;28;1320;-71
2021/12/25 05:31:25;;;;;;;;;;;19.60;57.20;;;;;;5025926;28;1461;-70
2021/12/25 05:33:50;;;;;;;;;;;19.60;57.10;;;;;;5026175;28;985;-70
2021/12/25 05:36:15;;;;;;;;;;;19.60;56.90;;;;;;5024218;22;3762;-68
2021/12/25 05:38:41;;;;;;;;;;;19.70;56.80;;;;;;4983024;28;1026;-69
2021/12/25 05:41:06;;;;;;;;;;;19.70;56.70;;;;;;4994414;28;1398;-69
2021/12/25 05:43:32;;;;;;;;;;;19.80;56.70;;;;;;5008994;28;1223;-69
2021/12/25 05:45:57;;;;;;;;;;;19.80;56.50;;;;;;5001370;28;1976;-71
2021/12/25 05:48:23;;;;;;;;;;;19.80;56.50;;;;;;5012490;28;1398;-70
2021/12/25 05:50:48;;;;;;;;;;;19.80;56.40;;;;;;5012409;28;1371;-70
2021/12/25 05:53:13;;;;;;;;;;;19.90;56.30;;;;;;5013353;28;1264;-70
2021/12/25 05:55:39;;;;;;;;;;;19.90;56.30;;;;;;5012167;28;1370;-70
2021/12/25 05:58:04;;;;;;;;;;;19.90;56.30;;;;;;5012322;28;1768;-71
2021/12/25 06:00:30;;;;;;;;;;;19.90;56.20;;;;;;5013339;28;1259;-70
2021/12/25 06:02:56;;;;;;;;;;;19.90;56.20;;;;;;5012089;28;1586;-69
2021/12/25 06:05:21;;;;;;;;;;;19.90;56.20;;;;;;5012053;28;1667;-70
2021/12/25 06:07:47;;;;;;;;;;;19.90;56.20;;;;;;5007459;28;1902;-71
2021/12/25 06:10:12;;;;;;;;;;;19.90;56.10;;;;;;5010782;28;1515;-70
2021/12/25 06:12:38;;;;;;;;;;;19.90;56.20;;;;;;5010063;28;1382;-67
2021/12/25 06:15:07;;;;;;;;;;;19.90;56.10;;;;;;5005872;28;1265;-70
2021/12/25 06:17:32;;;;;;;;;;;19.90;56.10;;;;;;5007298;28;1727;-70
2021/12/25 06:19:57;;;;;;;;;;;19.90;56.10;;;;;;5005432;28;1196;-66
2021/12/25 06:22:23;;;;;;;;;;;19.90;56.70;;;;;;5008345;28;1820;-68
2021/12/25 06:24:49;;;;;;;;;;;20.00;56.20;;;;;;5007709;28;1160;-66
2021/12/25 06:27:24;;;;;;;;;;;19.90;56.70;;;;;;5012565;28;1883;-68
2021/12/25 06:29:49;;;;;;;;;;;19.90;56.10;;;;;;5006734;28;1312;-67
2021/12/25 06:32:15;;;;;;;;;;;19.90;56.10;;;;;;5011885;28;1200;-68
2021/12/25 06:34:40;;;;;;;;;;;19.90;56.10;;;;;;5001812;28;1220;-66
2021/12/25 06:37:06;;;;;;;;;;;19.90;56.10;;;;;;5010534;28;1361;-66
2021/12/25 06:39:31;;;;;;;;;;;19.90;56.10;;;;;;5004169;28;1323;-67
2021/12/25 06:41:57;;;;;;;;;;;19.90;56.10;;;;;;5007486;28;1774;-68
2021/12/25 06:44:24;;;;;;;;;;;19.90;56.10;;;;;;5004558;28;1397;-67
2021/12/25 06:46:50;;;;;;;;;;;19.90;56.10;;;;;;5006362;28;2356;-67
2021/12/25 06:49:16;;;;;;;;;;;19.90;56.10;;;;;;5002430;28;1171;-66
2021/12/25 06:51:41;;;;;;;;;;;19.90;56.10;;;;;;5005839;28;1074;-66
2021/12/25 06:54:07;;;;;;;;;;;19.90;56.10;;;;;;5004946;28;1159;-65
2021/12/25 06:56:32;;;;;;;;;;;19.90;56.10;;;;;;5008515;28;1595;-66
2021/12/25 06:58:57;;;;;;;;;;;19.90;56.10;;;;;;5005415;28;1168;-67
2021/12/25 07:01:23;;;;;;;;;;;19.90;56.10;;;;;;5006361;28;1591;-67
2021/12/25 07:03:48;;;;;;;;;;;19.90;56.10;;;;;;5008157;28;1409;-67
2021/12/25 07:06:14;;;;;;;;;;;19.90;56.10;;;;;;5012660;28;1906;-67
2021/12/25 07:08:40;;;;;;;;;;;19.90;56.10;;;;;;5008120;28;1192;-67
2021/12/25 07:11:05;;;;;;;;;;;19.90;56.00;;;;;;5006152;28;1531;-68
2021/12/25 07:13:30;;;;;;;;;;;19.90;56.00;;;;;;5003259;28;1247;-67
2021/12/25 07:15:56;;;;;;;;;;;19.90;56.00;;;;;;5006291;28;1354;-66
2021/12/25 07:18:21;;;;;;;;;;;19.90;56.10;;;;;;5004087;28;1303;-67
2021/12/25 07:20:48;;;;;;;;;;;20.00;56.10;;;;;;5006418;28;1213;-68
2021/12/25 07:23:14;;;;;;;;;;;19.90;56.10;;;;;;5003021;28;1194;-66
2021/12/25 07:25:40;;;;;;;;;;;19.90;56.10;;;;;;5005447;28;1953;-68
2021/12/25 07:28:05;;;;;;;;;;;19.90;56.10;;;;;;5004590;28;1409;-66
2021/12/25 07:30:31;;;;;;;;;;;19.90;56.10;;;;;;5008851;28;1776;-66
2021/12/25 07:32:56;;;;;;;;;;;19.90;56.10;;;;;;5013154;28;1725;-67
2021/12/25 07:35:21;;;;;;;;;;;19.90;56.10;;;;;;5015847;28;1417;-66
2021/12/25 07:37:47;;;;;;;;;;;19.90;56.10;;;;;;5014938;28;1385;-66
2021/12/25 07:40:12;;;;;;;;;;;19.90;56.10;;;;;;5016124;28;1549;-65
2021/12/25 07:42:38;;;;;;;;;;;19.90;56.10;;;;;;5016082;28;1372;-67
2021/12/25 07:45:06;;;;;;;;;;;19.90;56.10;;;;;;5015590;28;1421;-66
2021/12/25 07:47:33;;;;;;;;;;;19.90;56.20;;;;;;5015721;28;1914;-67
2021/12/25 07:49:59;;;;;;;;;;;19.90;56.20;;;;;;5016261;28;1357;-68
2021/12/25 07:52:25;;;;;;;;;;;19.90;56.20;;;;;;5015922;28;1123;-67
2021/12/25 07:54:50;;;;;;;;;;;19.90;56.20;;;;;;5015756;28;1374;-67
2021/12/25 07:57:16;;;;;;;;;;;19.90;56.20;;;;;;5015716;28;1713;-66
2021/12/25 07:59:41;;;;;;;;;;;20.00;56.20;;;;;;5011385;28;1831;-68
2021/12/25 08:02:07;;;;;;;;;;;20.00;56.60;;;;;;5024043;28;1313;-67
2021/12/25 08:04:32;;;;;;;;;;;20.10;55.90;;;;;;5013985;28;1435;-67
2021/12/25 08:06:57;;;;;;;;;;;20.30;55.80;;;;;;5011479;28;2229;-68
2021/12/25 08:09:29;;;;;;;;;;;20.40;55.50;;;;;;5013688;28;1742;-68
2021/12/25 08:11:55;;;;;;;;;;;20.60;55.30;;;;;;5012041;28;1248;-67
2021/12/25 08:14:23;;;;;;;;;;;20.80;55.00;;;;;;5014678;28;1630;-68
2021/12/25 08:16:48;;;;;;;;;;;20.90;54.70;;;;;;5023164;28;1697;-68
2021/12/25 08:19:14;;;;;;;;;;;21.10;54.40;;;;;;5015671;28;1605;-68
2021/12/25 08:21:39;;;;;;;;;;;21.20;54.10;;;;;;5014123;28;1148;-68
2021/12/25 08:24:04;;;;;;;;;;;21.30;53.80;;;;;;5013625;28;1628;-68
2021/12/25 08:26:30;;;;;;;;;;;21.40;53.50;;;;;;5014794;28;1894;-68
2021/12/25 08:28:55;;;;;;;;;;;21.50;53.30;;;;;;5014726;28;1391;-68
2021/12/25 08:31:21;;;;;;;;;;;21.60;53.00;;;;;;5014883;28;1420;-68
2021/12/25 08:33:46;;;;;;;;;;;21.70;52.80;;;;;;5014638;28;1185;-68
2021/12/25 08:36:12;;;;;;;;;;;21.80;52.60;;;;;;5014604;28;1679;-69
2021/12/25 08:38:37;;;;;;;;;;;21.90;52.40;;;;;;5014995;28;1728;-68
2021/12/25 08:41:03;;;;;;;;;;;21.90;52.20;;;;;;5014740;28;1582;-68
2021/12/25 08:43:34;;;;;;;;;;;22.00;52.10;;;;;;5014251;28;1363;-68
2021/12/25 08:46:11;;;;;;;;;;;22.00;52.00;;;;;;5014526;28;1906;-68
2021/12/25 08:48:37;;;;;;;;;;;22.00;52.00;;;;;;5014700;28;1254;-68
2021/12/25 08:51:02;;;;;;;;;;;22.00;52.00;;;;;;5014498;28;1472;-68
2021/12/25 08:53:28;;;;;;;;;;;22.10;52.00;;;;;;5014740;28;1577;-69
2021/12/25 08:55:54;;;;;;;;;;;22.10;52.00;;;;;;5013529;28;1658;-68
2021/12/25 08:58:20;;;;;;;;;;;22.10;52.10;;;;;;5014835;28;1409;-68
2021/12/25 09:00:47;;;;;;;;;;;22.00;52.10;;;;;;5014727;28;1592;-68
2021/12/25 09:03:12;;;;;;;;;;;22.00;52.20;;;;;;5030012;28;1492;-68
2021/12/25 09:05:38;;;;;;;;;;;22.00;52.30;;;;;;5013422;28;1585;-68
2021/12/25 09:08:03;;;;;;;;;;;22.00;52.40;;;;;;5014909;28;1895;-68
2021/12/25 09:10:29;;;;;;;;;;;22.00;52.30;;;;;;5014714;28;1436;-68
2021/12/25 09:12:55;;;;;;;;;;;22.00;52.40;;;;;;5013345;28;1284;-68
2021/12/25 09:15:20;;;;;;;;;;;22.00;52.30;;;;;;5013143;28;1439;-68
2021/12/25 09:17:46;;;;;;;;;;;21.90;52.30;;;;;;5013353;28;1666;-68
2021/12/25 09:20:12;;;;;;;;;;;21.90;52.30;;;;;;5014376;28;1642;-68
2021/12/25 09:22:37;;;;;;;;;;;21.90;52.40;;;;;;5013411;28;1276;-68
2021/12/25 09:25:03;;;;;;;;;;;21.90;52.50;;;;;;5014027;28;1723;-68
2021/12/25 09:27:28;;;;;;;;;;;21.80;52.50;;;;;;5014021;28;1898;-68
2021/12/25 09:29:54;;;;;;;;;;;21.80;52.50;;;;;;5014084;28;1637;-68
2021/12/25 09:32:20;;;;;;;;;;;21.80;52.60;;;;;;5014195;28;1646;-68
2021/12/25 09:34:45;;;;;;;;;;;21.80;52.60;;;;;;5013731;28;1570;-68
2021/12/25 09:37:12;;;;;;;;;;;21.70;52.70;;;;;;5011723;28;1295;-68
2021/12/25 09:39:37;;;;;;;;;;;21.70;52.80;;;;;;5007617;28;1372;-68
2021/12/25 09:42:03;;;;;;;;;;;21.70;52.90;;;;;;5007133;28;1235;-68
2021/12/25 09:44:29;;;;;;;;;;;21.70;52.90;;;;;;5007803;28;1287;-69
2021/12/25 09:46:54;;;;;;;;;;;21.60;52.90;;;;;;5009665;28;1907;-68
2021/12/25 09:49:19;;;;;;;;;;;21.60;53.00;;;;;;5008501;28;1287;-67
2021/12/25 09:51:45;;;;;;;;;;;21.50;53.00;;;;;;5006159;28;1264;-68
2021/12/25 09:54:12;;;;;;;;;;;21.50;53.10;;;;;;5006167;28;1240;-67
2021/12/25 09:56:38;;;;;;;;;;;21.50;53.20;;;;;;5007799;28;1374;-67
2021/12/25 09:59:04;;;;;;;;;;;21.50;53.20;;;;;;5007357;28;1220;-68
2021/12/25 10:01:39;;;;;;;;;;;21.50;53.30;;;;;;5006335;28;1221;-68
2021/12/25 10:04:05;;;;;;;;;;;21.50;53.40;;;;;;5009131;28;1125;-68
2021/12/25 10:06:32;;;;;;;;;;;21.40;53.40;;;;;;5013101;28;1902;-68
2021/12/25 10:08:57;;;;;;;;;;;21.40;53.40;;;;;;5011951;28;1347;-68
2021/12/25 10:11:23;;;;;;;;;;;21.40;53.50;;;;;;5012130;28;1378;-68
2021/12/25 10:13:50;;;;;;;;;;;21.40;53.60;;;;;;5013143;28;1268;-68
2021/12/25 10:16:24;;;;;;;;;;;21.30;53.50;;;;;;5011914;28;1515;-68
2021/12/25 10:18:50;;;;;;;;;;;21.30;53.60;;;;;;5012192;28;1395;-68
2021/12/25 10:21:28;;;;;;;;;;;21.30;53.60;;;;;;5013288;28;1280;-68
2021/12/25 10:24:02;;;;;;;;;;;21.30;54.30;;;;;;5011889;28;1400;-68
2021/12/25 10:26:28;;;;;;;;;;;21.20;53.70;;;;;;5012995;28;1898;-68
2021/12/25 10:28:53;;;;;;;;;;;21.30;53.80;;;;;;5013174;28;1421;-68
2021/12/25 10:31:20;;;;;;;;;;;21.20;53.80;;;;;;5013147;28;1060;-68
2021/12/25 10:33:53;;;;;;;;;;;21.20;53.80;;;;;;5011734;28;1369;-68
2021/12/25 10:36:24;;;;;;;;;;;21.20;53.90;;;;;;5013176;28;1387;-68
2021/12/25 10:38:56;;;;;;;;;;;21.20;54.00;;;;;;5013438;28;1252;-68
2021/12/25 10:41:22;;;;;;;;;;;21.10;54.00;;;;;;5011913;28;1352;-68
2021/12/25 10:43:49;;;;;;;;;;;21.10;54.00;;;;;;5012798;28;1130;-68
2021/12/25 10:46:14;;;;;;;;;;;21.20;54.00;;;;;;5012854;28;1914;-68
2021/12/25 10:48:40;;;;;;;;;;;21.10;54.10;;;;;;5012668;28;1068;-68
2021/12/25 10:51:05;;;;;;;;;;;21.10;54.10;;;;;;5012752;28;1075;-68
2021/12/25 10:53:40;;;;;;;;;;;21.10;54.10;;;;;;5011645;28;1094;-68
2021/12/25 10:56:06;;;;;;;;;;;21.10;54.20;;;;;;5012880;28;1393;-68
2021/12/25 10:58:31;;;;;;;;;;;21.00;54.10;;;;;;5013009;28;1338;-68
2021/12/25 11:00:57;;;;;;;;;;;21.00;54.20;;;;;;5011239;28;1359;-68
2021/12/25 11:03:32;;;;;;;;;;;21.00;54.20;;;;;;5012661;28;1139;-68
2021/12/25 11:06:17;;;;;;;;;;;21.00;54.30;;;;;;5012440;28;1969;-68
2021/12/25 11:08:43;;;;;;;;;;;21.00;54.30;;;;;;5016193;28;1227;-68
2021/12/25 11:11:16;;;;;;;;;;;21.00;54.30;;;;;;5015483;28;1349;-68
2021/12/25 11:13:45;;;;;;;;;;;21.00;54.30;;;;;;5014956;28;1300;-68
2021/12/25 11:16:22;;;;;;;;;;;21.00;54.40;;;;;;5015071;28;1311;-68
2021/12/25 11:18:50;;;;;;;;;;;21.00;54.40;;;;;;5016326;28;1329;-70
2021/12/25 11:21:16;;;;;;;;;;;21.00;54.40;;;;;;5014917;28;1322;-70
2021/12/25 11:23:42;;;;;;;;;;;21.00;54.40;;;;;;5015953;28;1238;-69
2021/12/25 11:26:08;;;;;;;;;;;21.00;54.30;;;;;;5014611;28;1918;-69
2021/12/25 11:28:33;;;;;;;;;;;21.10;54.30;;;;;;5016134;28;1328;-70
2021/12/25 11:30:59;;;;;;;;;;;21.10;54.20;;;;;;4998625;28;1339;-70
2021/12/25 11:33:24;;;;;;;;;;;21.10;54.10;;;;;;5011014;28;2051;-69
2021/12/25 11:38:21;;;;;;;;;;;21.20;54.00;;;;;;5025893;28;1887;-69
2021/12/25 11:40:51;;;;;;;;;;;21.30;53.90;;;;;;5033887;28;1513;-69
2021/12/25 11:43:33;;;;;;;;;;;21.30;53.90;;;;;;5039291;28;1414;-69
2021/12/25 11:45:59;;;;;;;;;;;21.30;53.80;;;;;;5055595;28;1977;-69
2021/12/25 11:48:24;;;;;;;;;;;21.30;53.80;;;;;;5054444;28;1701;-68
2021/12/25 11:50:51;;;;;;;;;;;21.30;53.70;;;;;;5055630;28;1420;-69
2021/12/25 11:53:23;;;;;;;;;;;21.30;53.70;;;;;;5051205;28;1717;-69
2021/12/25 11:58:56;;;;;;;;;;;21.30;53.80;;;;;;5027199;28;1465;-68
2021/12/25 12:01:26;;;;;;;;;;;21.20;53.80;;;;;;5041558;28;1147;-68
2021/12/25 12:03:57;;;;;;;;;;;21.20;53.80;;;;;;5027903;28;1236;-68
2021/12/25 12:06:41;;;;;;;;;;;21.20;53.80;;;;;;5029041;28;1899;-69
2021/12/25 12:09:10;;;;;;;;;;;21.20;53.90;;;;;;5038974;28;1376;-69
2021/12/25 12:11:36;;;;;;;;;;;21.20;54.60;;;;;;5054138;28;1385;-69
2021/12/25 12:14:15;;;;;;;;;;;21.10;54.00;;;;;;5054740;28;1384;-69
2021/12/25 12:16:41;;;;;;;;;;;21.20;54.10;;;;;;5055149;28;1350;-69
2021/12/25 12:19:25;;;;;;;;;;;21.10;54.00;;;;;;5054592;28;1740;-69
2021/12/25 12:21:51;;;;;;;;;;;21.10;54.10;;;;;;5054989;28;1353;-69
2021/12/25 12:25:02;;;;;;;;;;;21.10;54.10;;;;;;5053602;28;1603;-69
2021/12/25 12:27:13;;;;;;;;;;;21.10;54.10;;;;;;5054502;28;1906;-69
2021/12/25 12:29:39;;;;;;;;;;;21.10;54.10;;;;;;5053901;28;1672;-69
2021/12/25 12:32:19;;;;;;;;;;;21.10;54.10;;;;;;5054828;28;1740;-69
2021/12/25 12:34:47;;;;;;;;;;;21.10;54.20;;;;;;5054336;28;1532;-69
2021/12/25 12:37:19;;;;;;;;;;;21.10;54.20;;;;;;5053417;28;1308;-69
2021/12/25 12:39:54;;;;;;;;;;;21.10;54.20;;;;;;5054811;28;1439;-69
2021/12/25 12:42:20;;;;;;;;;;;21.00;54.20;;;;;;5053438;28;1667;-68
2021/12/25 12:44:49;;;;;;;;;;;21.10;54.20;;;;;;5053188;28;1669;-69
2021/12/25 12:47:18;;;;;;;;;;;21.00;54.20;;;;;;5054186;28;1985;-69
2021/12/25 12:49:49;;;;;;;;;;;21.00;54.20;;;;;;5053437;28;1770;-69
2021/12/25 12:52:15;;;;;;;;;;;21.00;54.30;;;;;;5054496;28;1357;-69
2021/12/25 12:54:45;;;;;;;;;;;21.00;54.30;;;;;;5054187;28;1420;-68
2021/12/25 12:57:15;;;;;;;;;;;21.00;54.30;;;;;;5054375;28;1767;-68
2021/12/25 12:59:42;;;;;;;;;;;21.00;54.30;;;;;;5054595;28;2226;-69
2021/12/25 13:02:08;;;;;;;;;;;21.00;54.30;;;;;;5039926;28;1393;-68
2021/12/25 13:04:52;;;;;;;;;;;21.00;54.40;;;;;;5053862;28;1452;-69
2021/12/25 13:07:19;;;;;;;;;;;20.90;54.40;;;;;;5054203;28;1976;-69
2021/12/25 13:09:51;;;;;;;;;;;20.90;54.40;;;;;;5050040;28;1213;-69
2021/12/25 13:12:30;;;;;;;;;;;20.90;54.40;;;;;;5053952;28;1678;-68
2021/12/25 13:14:56;;;;;;;;;;;20.90;54.50;;;;;;5054000;28;1267;-69
2021/12/25 13:17:22;;;;;;;;;;;20.90;54.50;;;;;;5051410;28;1623;-69
2021/12/25 13:19:47;;;;;;;;;;;20.90;54.60;;;;;;5037036;28;2083;-67
2021/12/25 13:22:13;;;;;;;;;;;20.90;54.60;;;;;;5034899;28;1263;-68
2021/12/25 13:24:38;;;;;;;;;;;20.90;54.60;;;;;;5029082;28;2087;-68
2021/12/25 13:27:04;;;;;;;;;;;20.80;54.60;;;;;;5047661;28;2306;-68
2021/12/25 13:29:31;;;;;;;;;;;20.80;54.60;;;;;;5034220;28;1634;-68
2021/12/25 13:31:56;;;;;;;;;;;20.80;54.60;;;;;;5040193;28;1501;-68
2021/12/25 13:34:23;;;;;;;;;;;20.80;54.60;;;;;;5053716;28;1720;-68
2021/12/25 13:36:53;;;;;;;;;;;20.80;54.60;;;;;;5052131;28;1536;-68
2021/12/25 13:39:23;;;;;;;;;;;20.80;54.60;;;;;;5052367;28;1626;-68
2021/12/25 13:41:49;;;;;;;;;;;20.80;54.60;;;;;;5036659;28;1712;-70
2021/12/25 13:44:16;;;;;;;;;;;20.80;54.70;;;;;;5029927;28;1475;-69
2021/12/25 13:46:54;;;;;;;;;;;20.80;54.70;;;;;;5033348;28;1980;-70
2021/12/25 13:49:26;;;;;;;;;;;20.80;54.80;;;;;;5031649;28;1972;-68
2021/12/25 13:51:51;;;;;;;;;;;20.70;54.70;;;;;;5033784;28;1284;-69
2021/12/25 13:54:17;;;;;;;;;;;20.70;54.70;;;;;;5032034;28;1437;-69
2021/12/25 13:56:48;;;;;;;;;;;20.70;54.80;;;;;;5051552;28;1411;-69
2021/12/25 13:59:14;;;;;;;;;;;20.70;54.80;;;;;;5052629;28;1668;-68
2021/12/25 14:01:39;;;;;;;;;;;20.70;54.90;;;;;;5042930;28;1650;-68
2021/12/25 14:04:08;;;;;;;;;;;20.70;54.90;;;;;;5048494;28;1400;-69
2021/12/25 14:06:34;;;;;;;;;;;20.70;54.90;;;;;;5052865;28;1965;-69
2021/12/25 14:08:59;;;;;;;;;;;20.70;54.90;;;;;;5031119;28;1731;-68
2021/12/25 14:11:28;;;;;;;;;;;20.70;54.90;;;;;;5033275;28;1582;-69
2021/12/25 14:13:53;;;;;;;;;;;20.60;54.90;;;;;;5032958;28;1710;-68
2021/12/25 14:16:19;;;;;;;;;;;20.60;54.90;;;;;;5031676;28;1461;-68
2021/12/25 14:18:44;;;;;;;;;;;20.60;55.00;;;;;;5032027;28;1623;-68
2021/12/25 14:21:14;;;;;;;;;;;20.60;55.00;;;;;;5031734;28;1675;-69
2021/12/25 14:23:39;;;;;;;;;;;20.60;55.00;;;;;;5031679;28;1727;-68
2021/12/25 14:26:05;;;;;;;;;;;20.60;55.00;;;;;;5031674;28;1961;-68
2021/12/25 14:28:31;;;;;;;;;;;20.60;55.10;;;;;;5032913;28;1531;-69
2021/12/25 14:30:59;;;;;;;;;;;20.60;55.10;;;;;;5033038;28;1378;-69
2021/12/25 14:33:25;;;;;;;;;;;20.60;55.10;;;;;;5032540;28;1280;-69
2021/12/25 14:35:50;;;;;;;;;;;20.60;55.10;;;;;;5032793;28;1551;-69
2021/12/25 14:38:15;;;;;;;;;;;20.50;55.10;;;;;;5031579;28;1363;-69
2021/12/25 14:40:46;;;;;;;;;;;20.50;55.20;;;;;;5042917;28;1603;-69
2021/12/25 14:43:13;;;;;;;;;;;20.50;55.20;;;;;;5055633;28;1645;-68
2021/12/25 14:45:39;;;;;;;;;;;20.50;55.30;;;;;;5056774;28;1660;-68
2021/12/25 14:48:06;;;;;;;;;;;20.50;55.30;;;;;;5056715;28;1961;-68
2021/12/25 14:50:32;;;;;;;;;;;20.40;55.30;;;;;;5057070;28;1357;-68
2021/12/25 14:53:02;;;;;;;;;;;20.40;55.30;;;;;;5056511;28;1635;-69
2021/12/25 14:55:27;;;;;;;;;;;20.40;55.40;;;;;;5056742;28;1545;-68
2021/12/25 14:58:03;;;;;;;;;;;20.40;55.40;;;;;;5055234;28;1468;-68
2021/12/25 15:00:30;;;;;;;;;;;20.40;55.40;;;;;;5056712;28;1372;-69
2021/12/25 15:03:15;;;;;;;;;;;20.40;55.40;;;;;;5042613;28;1493;-68
2021/12/25 15:05:41;;;;;;;;;;;20.40;55.40;;;;;;5027182;28;1592;-69
2021/12/25 15:08:20;;;;;;;;;;;20.40;55.40;;;;;;5029438;28;1958;-69
2021/12/25 15:10:46;;;;;;;;;;;20.40;55.40;;;;;;5030008;28;1389;-69
2021/12/25 15:13:20;;;;;;;;;;;20.40;55.40;;;;;;5027077;28;1199;-69
2021/12/25 15:16:04;;;;;;;;;;;20.40;55.40;;;;;;5030555;28;1438;-68
2021/12/25 15:18:30;;;;;;;;;;;20.40;55.40;;;;;;5030345;28;1157;-68
2021/12/25 15:21:06;;;;;;;;;;;20.40;55.40;;;;;;5026757;28;1418;-68
2021/12/25 15:23:31;;;;;;;;;;;20.40;55.40;;;;;;5027994;28;1315;-68
2021/12/25 15:26:04;;;;;;;;;;;20.40;55.40;;;;;;5026381;28;1969;-69
2021/12/25 15:28:30;;;;;;;;;;;20.40;55.40;;;;;;5029054;28;1327;-68
2021/12/25 15:30:55;;;;;;;;;;;20.40;55.40;;;;;;5028609;28;1232;-69
2021/12/25 15:33:21;;;;;;;;;;;20.40;55.40;;;;;;5028644;28;1181;-69
2021/12/25 15:35:46;;;;;;;;;;;20.40;55.40;;;;;;5040428;28;1312;-69
2021/12/25 15:38:13;;;;;;;;;;;20.40;55.40;;;;;;5028169;28;1397;-68
2021/12/25 15:40:41;;;;;;;;;;;20.30;55.40;;;;;;5027603;28;1447;-68
2021/12/25 15:43:07;;;;;;;;;;;20.40;55.40;;;;;;5025696;28;1141;-69
2021/12/25 15:45:32;;;;;;;;;;;20.40;55.50;;;;;;5027367;28;1181;-69
2021/12/25 15:47:58;;;;;;;;;;;20.30;55.40;;;;;;5042478;28;1894;-68
2021/12/25 15:50:26;;;;;;;;;;;20.30;55.50;;;;;;5026969;28;1307;-68